sensor_id;sensor_type;location;lat;lon;timestamp;P1;durP1;ratioP1;P2;durP2;ratioP2
4434;SDS011;46552;52.150;8.428;2023-08-31T00:01:32;33.33;;;18.93;;
4434;SDS011;46552;52.150;8.428;2023-08-31T00:03:59;27.67;;;19.43;;
4434;SDS011;46552;52.150;8.428;2023-08-31T00:06:27;27.57;;;19.07;;
4434;SDS011;46552;52.150;8.428;2023-08-31T00:08:54;30.83;;;19.50;;
4434;SDS011;46552;52.150;8.428;2023-08-31T00:11:22;25.83;;;18.57;;
4434;SDS011;46552;52.150;8.428;2023-08-31T00:13:51;35.33;;;18.20;;
4434;SDS011;46552;52.150;8.428;2023-08-31T00:16:25;29.43;;;18.90;;
4434;SDS011;46552;52.150;8.428;2023-08-31T00:18:52;32.63;;;17.90;;
4434;SDS011;46552;52.150;8.428;2023-08-31T00:21:20;26.47;;;18.10;;
4434;SDS011;46552;52.150;8.428;2023-08-31T00:23:48;27.70;;;18.40;;
4434;SDS011;46552;52.150;8.428;2023-08-31T00:26:15;36.70;;;17.70;;
4434;SDS011;46552;52.150;8.428;2023-08-31T00:28:42;26.93;;;18.13;;
4434;SDS011;46552;52.150;8.428;2023-08-31T00:31:09;31.30;;;17.20;;
4434;SDS011;46552;52.150;8.428;2023-08-31T00:33:39;32.10;;;17.53;;
4434;SDS011;46552;52.150;8.428;2023-08-31T00:36:06;23.77;;;16.27;;
4434;SDS011;46552;52.150;8.428;2023-08-31T00:38:34;28.30;;;17.43;;
4434;SDS011;46552;52.150;8.428;2023-08-31T00:41:03;27.20;;;17.30;;
4434;SDS011;46552;52.150;8.428;2023-08-31T00:43:31;33.77;;;18.33;;
4434;SDS011;46552;52.150;8.428;2023-08-31T00:45:59;33.60;;;17.77;;
4434;SDS011;46552;52.150;8.428;2023-08-31T00:48:27;26.27;;;16.50;;
4434;SDS011;46552;52.150;8.428;2023-08-31T00:50:56;29.63;;;18.03;;
4434;SDS011;46552;52.150;8.428;2023-08-31T00:53:26;30.53;;;17.90;;
4434;SDS011;46552;52.150;8.428;2023-08-31T00:55:53;27.40;;;17.60;;
4434;SDS011;46552;52.150;8.428;2023-08-31T00:58:21;26.87;;;17.30;;
4434;SDS011;46552;52.150;8.428;2023-08-31T01:00:50;24.60;;;17.27;;
4434;SDS011;46552;52.150;8.428;2023-08-31T01:03:27;59.03;;;16.80;;
4434;SDS011;46552;52.150;8.428;2023-08-31T01:06:07;35.10;;;18.90;;
4434;SDS011;46552;52.150;8.428;2023-08-31T01:08:41;32.63;;;16.23;;
4434;SDS011;46552;52.150;8.428;2023-08-31T01:11:20;30.37;;;16.37;;
4434;SDS011;46552;52.150;8.428;2023-08-31T01:14:00;28.00;;;16.67;;
4434;SDS011;46552;52.150;8.428;2023-08-31T01:16:29;33.27;;;14.93;;
4434;SDS011;46552;52.150;8.428;2023-08-31T01:19:00;34.33;;;15.27;;
4434;SDS011;46552;52.150;8.428;2023-08-31T01:21:33;25.70;;;16.70;;
4434;SDS011;46552;52.150;8.428;2023-08-31T01:24:06;26.37;;;15.10;;
4434;SDS011;46552;52.150;8.428;2023-08-31T01:26:37;23.50;;;14.47;;
4434;SDS011;46552;52.150;8.428;2023-08-31T01:29:08;27.13;;;13.87;;
4434;SDS011;46552;52.150;8.428;2023-08-31T01:31:41;26.43;;;15.20;;
4434;SDS011;46552;52.150;8.428;2023-08-31T01:34:10;25.43;;;14.40;;
4434;SDS011;46552;52.150;8.428;2023-08-31T01:36:38;38.20;;;13.73;;
4434;SDS011;46552;52.150;8.428;2023-08-31T01:39:14;26.30;;;14.03;;
4434;SDS011;46552;52.150;8.428;2023-08-31T01:41:46;22.53;;;11.90;;
4434;SDS011;46552;52.150;8.428;2023-08-31T01:44:20;21.87;;;13.93;;
4434;SDS011;46552;52.150;8.428;2023-08-31T01:46:51;24.57;;;12.03;;
4434;SDS011;46552;52.150;8.428;2023-08-31T01:49:20;21.20;;;12.87;;
4434;SDS011;46552;52.150;8.428;2023-08-31T01:51:47;29.20;;;13.43;;
4434;SDS011;46552;52.150;8.428;2023-08-31T01:54:16;21.80;;;13.47;;
4434;SDS011;46552;52.150;8.428;2023-08-31T01:56:44;23.93;;;13.53;;
4434;SDS011;46552;52.150;8.428;2023-08-31T01:59:12;27.77;;;13.60;;
4434;SDS011;46552;52.150;8.428;2023-08-31T02:01:39;28.80;;;13.43;;
4434;SDS011;46552;52.150;8.428;2023-08-31T02:04:06;18.33;;;11.20;;
4434;SDS011;46552;52.150;8.428;2023-08-31T02:06:34;20.73;;;11.77;;
4434;SDS011;46552;52.150;8.428;2023-08-31T02:09:01;20.77;;;11.40;;
4434;SDS011;46552;52.150;8.428;2023-08-31T02:11:32;17.30;;;12.97;;
4434;SDS011;46552;52.150;8.428;2023-08-31T02:14:03;21.03;;;12.20;;
4434;SDS011;46552;52.150;8.428;2023-08-31T02:16:30;18.13;;;12.77;;
4434;SDS011;46552;52.150;8.428;2023-08-31T02:18:58;24.43;;;12.10;;
4434;SDS011;46552;52.150;8.428;2023-08-31T02:21:25;22.23;;;12.33;;
4434;SDS011;46552;52.150;8.428;2023-08-31T02:23:53;33.53;;;11.97;;
4434;SDS011;46552;52.150;8.428;2023-08-31T02:26:21;23.73;;;13.90;;
4434;SDS011;46552;52.150;8.428;2023-08-31T02:28:49;20.93;;;12.37;;
4434;SDS011;46552;52.150;8.428;2023-08-31T02:31:17;23.77;;;14.70;;
4434;SDS011;46552;52.150;8.428;2023-08-31T02:33:45;21.33;;;13.50;;
4434;SDS011;46552;52.150;8.428;2023-08-31T02:36:13;18.77;;;12.30;;
4434;SDS011;46552;52.150;8.428;2023-08-31T02:38:40;24.30;;;13.57;;
4434;SDS011;46552;52.150;8.428;2023-08-31T02:41:08;22.70;;;12.93;;
4434;SDS011;46552;52.150;8.428;2023-08-31T02:43:36;22.30;;;13.50;;
4434;SDS011;46552;52.150;8.428;2023-08-31T02:46:05;19.53;;;13.73;;
4434;SDS011;46552;52.150;8.428;2023-08-31T02:48:33;28.50;;;16.03;;
4434;SDS011;46552;52.150;8.428;2023-08-31T02:51:01;19.30;;;13.30;;
4434;SDS011;46552;52.150;8.428;2023-08-31T02:53:28;21.43;;;13.27;;
4434;SDS011;46552;52.150;8.428;2023-08-31T02:55:57;30.90;;;13.70;;
4434;SDS011;46552;52.150;8.428;2023-08-31T02:58:24;23.90;;;14.67;;
4434;SDS011;46552;52.150;8.428;2023-08-31T03:00:51;23.63;;;14.60;;
4434;SDS011;46552;52.150;8.428;2023-08-31T03:03:20;22.27;;;15.50;;
4434;SDS011;46552;52.150;8.428;2023-08-31T03:05:47;27.37;;;15.30;;
4434;SDS011;46552;52.150;8.428;2023-08-31T03:08:15;23.50;;;13.33;;
4434;SDS011;46552;52.150;8.428;2023-08-31T03:10:43;22.83;;;14.27;;
4434;SDS011;46552;52.150;8.428;2023-08-31T03:13:10;41.97;;;17.43;;
4434;SDS011;46552;52.150;8.428;2023-08-31T03:15:37;23.87;;;13.93;;
4434;SDS011;46552;52.150;8.428;2023-08-31T03:18:05;33.10;;;14.60;;
4434;SDS011;46552;52.150;8.428;2023-08-31T03:20:33;26.77;;;14.47;;
4434;SDS011;46552;52.150;8.428;2023-08-31T03:23:00;21.63;;;15.13;;
4434;SDS011;46552;52.150;8.428;2023-08-31T03:25:27;25.23;;;15.60;;
4434;SDS011;46552;52.150;8.428;2023-08-31T03:27:56;27.00;;;15.27;;
4434;SDS011;46552;52.150;8.428;2023-08-31T03:30:24;31.73;;;16.27;;
4434;SDS011;46552;52.150;8.428;2023-08-31T03:32:51;25.30;;;15.90;;
4434;SDS011;46552;52.150;8.428;2023-08-31T03:35:18;37.00;;;18.10;;
4434;SDS011;46552;52.150;8.428;2023-08-31T03:37:48;26.07;;;16.73;;
4434;SDS011;46552;52.150;8.428;2023-08-31T03:40:15;24.90;;;16.73;;
4434;SDS011;46552;52.150;8.428;2023-08-31T03:42:42;27.73;;;17.00;;
4434;SDS011;46552;52.150;8.428;2023-08-31T03:45:09;27.73;;;15.77;;
4434;SDS011;46552;52.150;8.428;2023-08-31T03:47:36;27.77;;;16.10;;
4434;SDS011;46552;52.150;8.428;2023-08-31T03:50:04;30.30;;;15.40;;
4434;SDS011;46552;52.150;8.428;2023-08-31T03:52:33;23.07;;;15.30;;
4434;SDS011;46552;52.150;8.428;2023-08-31T03:55:01;28.03;;;16.50;;
4434;SDS011;46552;52.150;8.428;2023-08-31T03:57:29;31.40;;;16.80;;
4434;SDS011;46552;52.150;8.428;2023-08-31T03:59:56;28.30;;;15.30;;
4434;SDS011;46552;52.150;8.428;2023-08-31T04:02:23;29.30;;;16.50;;
4434;SDS011;46552;52.150;8.428;2023-08-31T04:04:50;25.50;;;16.00;;
4434;SDS011;46552;52.150;8.428;2023-08-31T04:07:17;24.77;;;17.17;;
4434;SDS011;46552;52.150;8.428;2023-08-31T04:09:44;29.90;;;17.63;;
4434;SDS011;46552;52.150;8.428;2023-08-31T04:12:14;27.10;;;17.70;;
4434;SDS011;46552;52.150;8.428;2023-08-31T04:14:41;28.73;;;19.67;;
4434;SDS011;46552;52.150;8.428;2023-08-31T04:17:08;32.80;;;18.47;;
4434;SDS011;46552;52.150;8.428;2023-08-31T04:19:35;33.17;;;21.37;;
4434;SDS011;46552;52.150;8.428;2023-08-31T04:22:03;28.50;;;20.60;;
4434;SDS011;46552;52.150;8.428;2023-08-31T04:24:30;31.60;;;20.27;;
4434;SDS011;46552;52.150;8.428;2023-08-31T04:26:58;31.70;;;21.20;;
4434;SDS011;46552;52.150;8.428;2023-08-31T04:29:27;29.40;;;20.27;;
4434;SDS011;46552;52.150;8.428;2023-08-31T04:31:55;31.53;;;23.10;;
4434;SDS011;46552;52.150;8.428;2023-08-31T04:34:23;36.23;;;24.23;;
4434;SDS011;46552;52.150;8.428;2023-08-31T04:36:51;41.57;;;25.20;;
4434;SDS011;46552;52.150;8.428;2023-08-31T04:39:18;34.60;;;23.47;;
4434;SDS011;46552;52.150;8.428;2023-08-31T04:41:46;36.40;;;25.83;;
4434;SDS011;46552;52.150;8.428;2023-08-31T04:44:13;38.20;;;25.60;;
4434;SDS011;46552;52.150;8.428;2023-08-31T04:46:41;44.83;;;28.37;;
4434;SDS011;46552;52.150;8.428;2023-08-31T04:49:08;38.70;;;26.87;;
4434;SDS011;46552;52.150;8.428;2023-08-31T04:51:36;39.67;;;27.77;;
4434;SDS011;46552;52.150;8.428;2023-08-31T04:54:04;43.80;;;28.90;;
4434;SDS011;46552;52.150;8.428;2023-08-31T04:56:32;42.10;;;29.33;;
4434;SDS011;46552;52.150;8.428;2023-08-31T04:59:00;53.77;;;29.90;;
4434;SDS011;46552;52.150;8.428;2023-08-31T05:01:29;44.87;;;30.67;;
4434;SDS011;46552;52.150;8.428;2023-08-31T05:03:58;41.13;;;29.93;;
4434;SDS011;46552;52.150;8.428;2023-08-31T05:06:27;41.30;;;30.87;;
4434;SDS011;46552;52.150;8.428;2023-08-31T05:08:55;45.17;;;30.93;;
4434;SDS011;46552;52.150;8.428;2023-08-31T05:11:23;45.53;;;31.70;;
4434;SDS011;46552;52.150;8.428;2023-08-31T05:13:50;47.87;;;34.70;;
4434;SDS011;46552;52.150;8.428;2023-08-31T05:16:17;52.90;;;34.30;;
4434;SDS011;46552;52.150;8.428;2023-08-31T05:18:44;49.60;;;35.80;;
4434;SDS011;46552;52.150;8.428;2023-08-31T05:21:13;54.93;;;37.07;;
4434;SDS011;46552;52.150;8.428;2023-08-31T05:23:40;55.00;;;36.43;;
4434;SDS011;46552;52.150;8.428;2023-08-31T05:26:07;50.87;;;35.07;;
4434;SDS011;46552;52.150;8.428;2023-08-31T05:28:35;51.77;;;34.30;;
4434;SDS011;46552;52.150;8.428;2023-08-31T05:31:02;65.17;;;38.30;;
4434;SDS011;46552;52.150;8.428;2023-08-31T05:33:30;58.23;;;38.83;;
4434;SDS011;46552;52.150;8.428;2023-08-31T05:36:00;57.23;;;39.23;;
4434;SDS011;46552;52.150;8.428;2023-08-31T05:38:30;56.47;;;39.83;;
4434;SDS011;46552;52.150;8.428;2023-08-31T05:41:08;68.70;;;41.43;;
4434;SDS011;46552;52.150;8.428;2023-08-31T05:43:36;63.93;;;40.57;;
4434;SDS011;46552;52.150;8.428;2023-08-31T05:46:05;50.90;;;40.00;;
4434;SDS011;46552;52.150;8.428;2023-08-31T05:48:32;67.10;;;43.53;;
4434;SDS011;46552;52.150;8.428;2023-08-31T05:51:00;61.33;;;41.50;;
4434;SDS011;46552;52.150;8.428;2023-08-31T05:53:27;60.93;;;41.73;;
4434;SDS011;46552;52.150;8.428;2023-08-31T05:55:58;58.90;;;41.77;;
4434;SDS011;46552;52.150;8.428;2023-08-31T05:58:30;56.70;;;40.53;;
4434;SDS011;46552;52.150;8.428;2023-08-31T06:00:58;63.17;;;43.00;;
4434;SDS011;46552;52.150;8.428;2023-08-31T06:03:25;60.57;;;42.30;;
4434;SDS011;46552;52.150;8.428;2023-08-31T06:05:53;54.43;;;40.37;;
4434;SDS011;46552;52.150;8.428;2023-08-31T06:08:21;60.13;;;39.80;;
4434;SDS011;46552;52.150;8.428;2023-08-31T06:10:50;63.13;;;40.57;;
4434;SDS011;46552;52.150;8.428;2023-08-31T06:13:18;70.43;;;44.67;;
4434;SDS011;46552;52.150;8.428;2023-08-31T06:15:47;54.90;;;38.10;;
4434;SDS011;46552;52.150;8.428;2023-08-31T06:18:14;65.20;;;41.57;;
4434;SDS011;46552;52.150;8.428;2023-08-31T06:20:41;64.63;;;42.70;;
4434;SDS011;46552;52.150;8.428;2023-08-31T06:23:09;61.73;;;40.80;;
4434;SDS011;46552;52.150;8.428;2023-08-31T06:25:36;72.10;;;40.83;;
4434;SDS011;46552;52.150;8.428;2023-08-31T06:28:06;58.13;;;39.23;;
4434;SDS011;46552;52.150;8.428;2023-08-31T06:30:33;55.27;;;38.50;;
4434;SDS011;46552;52.150;8.428;2023-08-31T06:33:00;56.53;;;38.43;;
4434;SDS011;46552;52.150;8.428;2023-08-31T06:35:28;59.00;;;38.40;;
4434;SDS011;46552;52.150;8.428;2023-08-31T06:37:58;58.27;;;38.90;;
4434;SDS011;46552;52.150;8.428;2023-08-31T06:40:25;57.00;;;39.90;;
4434;SDS011;46552;52.150;8.428;2023-08-31T06:42:53;61.70;;;40.30;;
4434;SDS011;46552;52.150;8.428;2023-08-31T06:45:24;55.33;;;40.63;;
4434;SDS011;46552;52.150;8.428;2023-08-31T06:47:53;57.10;;;38.90;;
4434;SDS011;46552;52.150;8.428;2023-08-31T06:50:20;54.40;;;37.43;;
4434;SDS011;46552;52.150;8.428;2023-08-31T06:52:47;53.07;;;37.97;;
4434;SDS011;46552;52.150;8.428;2023-08-31T06:55:15;63.73;;;39.30;;
4434;SDS011;46552;52.150;8.428;2023-08-31T06:57:42;51.27;;;34.97;;
4434;SDS011;46552;52.150;8.428;2023-08-31T07:00:14;59.43;;;38.93;;
4434;SDS011;46552;52.150;8.428;2023-08-31T07:02:45;56.33;;;40.10;;
4434;SDS011;46552;52.150;8.428;2023-08-31T07:05:11;58.80;;;40.07;;
4434;SDS011;46552;52.150;8.428;2023-08-31T07:07:39;58.67;;;39.03;;
4434;SDS011;46552;52.150;8.428;2023-08-31T07:10:07;60.40;;;37.03;;
4434;SDS011;46552;52.150;8.428;2023-08-31T07:12:34;59.90;;;37.63;;
4434;SDS011;46552;52.150;8.428;2023-08-31T07:15:02;49.17;;;37.00;;
4434;SDS011;46552;52.150;8.428;2023-08-31T07:17:30;55.37;;;36.90;;
4434;SDS011;46552;52.150;8.428;2023-08-31T07:20:00;61.83;;;38.73;;
4434;SDS011;46552;52.150;8.428;2023-08-31T07:22:31;50.97;;;36.90;;
4434;SDS011;46552;52.150;8.428;2023-08-31T07:24:58;60.00;;;36.40;;
4434;SDS011;46552;52.150;8.428;2023-08-31T07:27:28;55.23;;;35.93;;
4434;SDS011;46552;52.150;8.428;2023-08-31T07:29:57;58.20;;;35.30;;
4434;SDS011;46552;52.150;8.428;2023-08-31T07:32:24;56.83;;;37.20;;
4434;SDS011;46552;52.150;8.428;2023-08-31T07:34:51;51.83;;;34.70;;
4434;SDS011;46552;52.150;8.428;2023-08-31T07:37:20;53.53;;;35.70;;
4434;SDS011;46552;52.150;8.428;2023-08-31T07:39:47;50.73;;;33.40;;
4434;SDS011;46552;52.150;8.428;2023-08-31T07:42:15;55.67;;;34.47;;
4434;SDS011;46552;52.150;8.428;2023-08-31T07:44:42;44.00;;;32.90;;
4434;SDS011;46552;52.150;8.428;2023-08-31T07:47:09;48.97;;;33.03;;
4434;SDS011;46552;52.150;8.428;2023-08-31T07:49:36;46.37;;;32.17;;
4434;SDS011;46552;52.150;8.428;2023-08-31T07:52:03;51.53;;;34.37;;
4434;SDS011;46552;52.150;8.428;2023-08-31T07:54:32;40.73;;;30.60;;
4434;SDS011;46552;52.150;8.428;2023-08-31T07:57:00;51.87;;;33.20;;
4434;SDS011;46552;52.150;8.428;2023-08-31T07:59:27;48.83;;;32.07;;
4434;SDS011;46552;52.150;8.428;2023-08-31T08:01:54;43.10;;;32.57;;
4434;SDS011;46552;52.150;8.428;2023-08-31T08:04:21;46.30;;;30.70;;
4434;SDS011;46552;52.150;8.428;2023-08-31T08:06:49;48.50;;;34.87;;
4434;SDS011;46552;52.150;8.428;2023-08-31T08:09:19;45.00;;;30.73;;
4434;SDS011;46552;52.150;8.428;2023-08-31T08:11:48;31.17;;;24.77;;
4434;SDS011;46552;52.150;8.428;2023-08-31T08:14:16;50.43;;;32.80;;
4434;SDS011;46552;52.150;8.428;2023-08-31T08:16:43;45.77;;;32.47;;
4434;SDS011;46552;52.150;8.428;2023-08-31T08:19:10;47.37;;;33.97;;
4434;SDS011;46552;52.150;8.428;2023-08-31T08:21:38;45.33;;;32.40;;
4434;SDS011;46552;52.150;8.428;2023-08-31T08:24:07;48.33;;;33.50;;
4434;SDS011;46552;52.150;8.428;2023-08-31T08:26:34;52.57;;;31.10;;
4434;SDS011;46552;52.150;8.428;2023-08-31T08:29:02;45.63;;;32.23;;
4434;SDS011;46552;52.150;8.428;2023-08-31T08:31:30;50.17;;;31.23;;
4434;SDS011;46552;52.150;8.428;2023-08-31T08:33:57;43.50;;;31.50;;
4434;SDS011;46552;52.150;8.428;2023-08-31T08:36:25;42.20;;;30.03;;
4434;SDS011;46552;52.150;8.428;2023-08-31T08:38:52;42.73;;;28.37;;
4434;SDS011;46552;52.150;8.428;2023-08-31T08:41:21;37.70;;;26.40;;
4434;SDS011;46552;52.150;8.428;2023-08-31T08:43:50;33.07;;;26.23;;
4434;SDS011;46552;52.150;8.428;2023-08-31T08:46:19;39.00;;;26.17;;
4434;SDS011;46552;52.150;8.428;2023-08-31T08:48:47;37.17;;;27.90;;
4434;SDS011;46552;52.150;8.428;2023-08-31T08:51:15;36.80;;;24.83;;
4434;SDS011;46552;52.150;8.428;2023-08-31T08:53:42;39.50;;;26.97;;
4434;SDS011;46552;52.150;8.428;2023-08-31T08:56:10;31.73;;;24.43;;
4434;SDS011;46552;52.150;8.428;2023-08-31T08:58:37;35.63;;;25.60;;
4434;SDS011;46552;52.150;8.428;2023-08-31T09:01:04;32.37;;;25.27;;
4434;SDS011;46552;52.150;8.428;2023-08-31T09:03:35;29.73;;;22.67;;
4434;SDS011;46552;52.150;8.428;2023-08-31T09:06:02;27.33;;;21.40;;
4434;SDS011;46552;52.150;8.428;2023-08-31T09:08:33;28.03;;;20.87;;
4434;SDS011;46552;52.150;8.428;2023-08-31T09:11:02;32.30;;;21.47;;
4434;SDS011;46552;52.150;8.428;2023-08-31T09:13:29;30.10;;;21.00;;
4434;SDS011;46552;52.150;8.428;2023-08-31T09:15:57;29.60;;;21.30;;
4434;SDS011;46552;52.150;8.428;2023-08-31T09:18:26;32.50;;;21.40;;
4434;SDS011;46552;52.150;8.428;2023-08-31T09:20:55;27.27;;;21.10;;
4434;SDS011;46552;52.150;8.428;2023-08-31T09:23:23;40.70;;;21.13;;
4434;SDS011;46552;52.150;8.428;2023-08-31T09:25:51;24.60;;;17.87;;
4434;SDS011;46552;52.150;8.428;2023-08-31T09:28:20;22.47;;;15.80;;
4434;SDS011;46552;52.150;8.428;2023-08-31T09:30:49;24.93;;;18.30;;
4434;SDS011;46552;52.150;8.428;2023-08-31T09:33:18;28.57;;;17.90;;
4434;SDS011;46552;52.150;8.428;2023-08-31T09:35:50;24.10;;;18.37;;
4434;SDS011;46552;52.150;8.428;2023-08-31T09:38:19;26.00;;;17.87;;
4434;SDS011;46552;52.150;8.428;2023-08-31T09:40:47;27.80;;;16.10;;
4434;SDS011;46552;52.150;8.428;2023-08-31T09:43:21;18.87;;;15.13;;
4434;SDS011;46552;52.150;8.428;2023-08-31T09:45:50;27.33;;;16.40;;
4434;SDS011;46552;52.150;8.428;2023-08-31T09:48:19;28.20;;;14.83;;
4434;SDS011;46552;52.150;8.428;2023-08-31T09:50:48;25.20;;;14.80;;
4434;SDS011;46552;52.150;8.428;2023-08-31T09:53:17;19.90;;;13.00;;
4434;SDS011;46552;52.150;8.428;2023-08-31T09:55:50;16.33;;;12.50;;
4434;SDS011;46552;52.150;8.428;2023-08-31T09:58:19;16.80;;;13.10;;
4434;SDS011;46552;52.150;8.428;2023-08-31T10:00:48;18.63;;;12.00;;
4434;SDS011;46552;52.150;8.428;2023-08-31T10:03:16;19.00;;;11.47;;
4434;SDS011;46552;52.150;8.428;2023-08-31T10:05:42;17.37;;;12.20;;
4434;SDS011;46552;52.150;8.428;2023-08-31T10:08:10;16.70;;;9.30;;
4434;SDS011;46552;52.150;8.428;2023-08-31T10:10:39;12.60;;;10.27;;
4434;SDS011;46552;52.150;8.428;2023-08-31T10:13:07;12.60;;;7.57;;
4434;SDS011;46552;52.150;8.428;2023-08-31T10:15:35;18.37;;;6.73;;
4434;SDS011;46552;52.150;8.428;2023-08-31T10:18:02;8.87;;;5.90;;
4434;SDS011;46552;52.150;8.428;2023-08-31T10:20:31;10.53;;;6.97;;
4434;SDS011;46552;52.150;8.428;2023-08-31T10:22:59;9.80;;;6.10;;
4434;SDS011;46552;52.150;8.428;2023-08-31T10:28:30;9.13;;;5.70;;
4434;SDS011;46552;52.150;8.428;2023-08-31T10:31:07;8.37;;;5.90;;
4434;SDS011;46552;52.150;8.428;2023-08-31T10:33:37;10.50;;;6.27;;
4434;SDS011;46552;52.150;8.428;2023-08-31T10:36:09;15.90;;;8.37;;
4434;SDS011;46552;52.150;8.428;2023-08-31T10:38:38;11.23;;;6.17;;
4434;SDS011;46552;52.150;8.428;2023-08-31T10:41:19;11.23;;;6.90;;
4434;SDS011;46552;52.150;8.428;2023-08-31T10:43:48;9.70;;;6.23;;
4434;SDS011;46552;52.150;8.428;2023-08-31T10:46:26;12.73;;;7.77;;
4434;SDS011;46552;52.150;8.428;2023-08-31T10:48:55;14.63;;;7.67;;
4434;SDS011;46552;52.150;8.428;2023-08-31T10:51:24;18.37;;;6.53;;
4434;SDS011;46552;52.150;8.428;2023-08-31T10:53:52;10.80;;;6.80;;
4434;SDS011;46552;52.150;8.428;2023-08-31T10:56:33;14.10;;;7.20;;
4434;SDS011;46552;52.150;8.428;2023-08-31T10:59:06;11.80;;;6.43;;
4434;SDS011;46552;52.150;8.428;2023-08-31T11:04:22;13.00;;;5.83;;
4434;SDS011;46552;52.150;8.428;2023-08-31T11:09:39;9.37;;;5.00;;
4434;SDS011;46552;52.150;8.428;2023-08-31T11:12:08;7.63;;;5.30;;
4434;SDS011;46552;52.150;8.428;2023-08-31T11:14:35;8.03;;;5.03;;
4434;SDS011;46552;52.150;8.428;2023-08-31T11:17:03;5.73;;;4.50;;
4434;SDS011;46552;52.150;8.428;2023-08-31T11:19:31;11.70;;;5.40;;
4434;SDS011;46552;52.150;8.428;2023-08-31T11:22:00;5.80;;;3.63;;
4434;SDS011;46552;52.150;8.428;2023-08-31T11:24:28;8.60;;;4.10;;
4434;SDS011;46552;52.150;8.428;2023-08-31T11:26:55;5.80;;;3.40;;
4434;SDS011;46552;52.150;8.428;2023-08-31T11:29:24;8.37;;;3.33;;
4434;SDS011;46552;52.150;8.428;2023-08-31T11:31:53;8.57;;;3.90;;
4434;SDS011;46552;52.150;8.428;2023-08-31T11:34:25;7.73;;;2.83;;
4434;SDS011;46552;52.150;8.428;2023-08-31T11:36:52;7.07;;;3.13;;
4434;SDS011;46552;52.150;8.428;2023-08-31T11:39:19;6.70;;;2.70;;
4434;SDS011;46552;52.150;8.428;2023-08-31T11:41:48;3.87;;;1.80;;
4434;SDS011;46552;52.150;8.428;2023-08-31T11:44:16;6.70;;;1.63;;
4434;SDS011;46552;52.150;8.428;2023-08-31T11:46:45;5.03;;;1.30;;
4434;SDS011;46552;52.150;8.428;2023-08-31T11:49:15;3.97;;;1.60;;
4434;SDS011;46552;52.150;8.428;2023-08-31T11:51:42;3.10;;;1.83;;
4434;SDS011;46552;52.150;8.428;2023-08-31T11:54:10;5.00;;;1.43;;
4434;SDS011;46552;52.150;8.428;2023-08-31T11:56:38;10.13;;;1.40;;
4434;SDS011;46552;52.150;8.428;2023-08-31T11:59:08;8.83;;;1.97;;
4434;SDS011;46552;52.150;8.428;2023-08-31T12:01:37;3.87;;;1.27;;
4434;SDS011;46552;52.150;8.428;2023-08-31T12:04:13;13.10;;;2.03;;
4434;SDS011;46552;52.150;8.428;2023-08-31T12:06:43;4.50;;;2.03;;
4434;SDS011;46552;52.150;8.428;2023-08-31T12:09:13;10.43;;;2.73;;
4434;SDS011;46552;52.150;8.428;2023-08-31T12:11:40;4.87;;;2.83;;
4434;SDS011;46552;52.150;8.428;2023-08-31T12:14:19;6.73;;;2.80;;
4434;SDS011;46552;52.150;8.428;2023-08-31T12:16:49;5.13;;;2.53;;
4434;SDS011;46552;52.150;8.428;2023-08-31T12:19:19;8.63;;;2.20;;
4434;SDS011;46552;52.150;8.428;2023-08-31T12:21:53;6.30;;;3.23;;
4434;SDS011;46552;52.150;8.428;2023-08-31T12:24:21;11.00;;;3.53;;
4434;SDS011;46552;52.150;8.428;2023-08-31T12:26:48;4.20;;;2.27;;
4434;SDS011;46552;52.150;8.428;2023-08-31T12:29:16;11.30;;;3.33;;
4434;SDS011;46552;52.150;8.428;2023-08-31T12:31:43;8.87;;;3.03;;
4434;SDS011;46552;52.150;8.428;2023-08-31T12:34:10;6.60;;;2.90;;
4434;SDS011;46552;52.150;8.428;2023-08-31T12:36:39;5.97;;;2.90;;
4434;SDS011;46552;52.150;8.428;2023-08-31T12:39:06;10.70;;;2.93;;
4434;SDS011;46552;52.150;8.428;2023-08-31T12:41:35;7.23;;;3.23;;
4434;SDS011;46552;52.150;8.428;2023-08-31T12:44:03;7.30;;;3.17;;
4434;SDS011;46552;52.150;8.428;2023-08-31T12:46:31;7.77;;;3.47;;
4434;SDS011;46552;52.150;8.428;2023-08-31T12:48:59;6.80;;;3.00;;
4434;SDS011;46552;52.150;8.428;2023-08-31T12:51:28;7.37;;;2.67;;
4434;SDS011;46552;52.150;8.428;2023-08-31T12:53:57;9.93;;;2.43;;
4434;SDS011;46552;52.150;8.428;2023-08-31T12:56:24;10.73;;;3.27;;
4434;SDS011;46552;52.150;8.428;2023-08-31T12:58:52;9.53;;;2.63;;
4434;SDS011;46552;52.150;8.428;2023-08-31T13:01:20;6.87;;;2.80;;
4434;SDS011;46552;52.150;8.428;2023-08-31T13:03:48;9.80;;;2.63;;
4434;SDS011;46552;52.150;8.428;2023-08-31T13:06:15;10.30;;;3.40;;
4434;SDS011;46552;52.150;8.428;2023-08-31T13:08:42;9.43;;;3.10;;
4434;SDS011;46552;52.150;8.428;2023-08-31T13:11:12;13.10;;;2.90;;
4434;SDS011;46552;52.150;8.428;2023-08-31T13:13:40;7.00;;;1.50;;
4434;SDS011;46552;52.150;8.428;2023-08-31T13:16:09;5.20;;;1.83;;
4434;SDS011;46552;52.150;8.428;2023-08-31T13:18:37;8.50;;;1.60;;
4434;SDS011;46552;52.150;8.428;2023-08-31T13:21:05;4.00;;;1.40;;
4434;SDS011;46552;52.150;8.428;2023-08-31T13:23:32;8.23;;;1.43;;
4434;SDS011;46552;52.150;8.428;2023-08-31T13:25:59;9.13;;;1.77;;
4434;SDS011;46552;52.150;8.428;2023-08-31T13:28:29;5.40;;;1.30;;
4434;SDS011;46552;52.150;8.428;2023-08-31T13:30:57;5.40;;;1.53;;
4434;SDS011;46552;52.150;8.428;2023-08-31T13:33:25;8.90;;;1.70;;
4434;SDS011;46552;52.150;8.428;2023-08-31T13:35:53;5.27;;;1.50;;
4434;SDS011;46552;52.150;8.428;2023-08-31T13:38:22;10.77;;;2.27;;
4434;SDS011;46552;52.150;8.428;2023-08-31T13:40:53;4.33;;;1.50;;
4434;SDS011;46552;52.150;8.428;2023-08-31T13:43:21;6.93;;;1.77;;
4434;SDS011;46552;52.150;8.428;2023-08-31T13:45:50;4.40;;;1.33;;
4434;SDS011;46552;52.150;8.428;2023-08-31T13:48:18;4.37;;;1.43;;
4434;SDS011;46552;52.150;8.428;2023-08-31T13:50:47;5.20;;;1.60;;
4434;SDS011;46552;52.150;8.428;2023-08-31T13:53:14;4.70;;;0.90;;
4434;SDS011;46552;52.150;8.428;2023-08-31T13:55:42;6.93;;;1.37;;
4434;SDS011;46552;52.150;8.428;2023-08-31T13:58:09;4.40;;;1.23;;
4434;SDS011;46552;52.150;8.428;2023-08-31T14:00:36;4.53;;;1.43;;
4434;SDS011;46552;52.150;8.428;2023-08-31T14:03:06;2.63;;;0.83;;
4434;SDS011;46552;52.150;8.428;2023-08-31T14:05:33;5.73;;;1.53;;
4434;SDS011;46552;52.150;8.428;2023-08-31T14:08:00;2.47;;;0.97;;
4434;SDS011;46552;52.150;8.428;2023-08-31T14:10:29;3.47;;;1.33;;
4434;SDS011;46552;52.150;8.428;2023-08-31T14:12:58;5.60;;;1.60;;
4434;SDS011;46552;52.150;8.428;2023-08-31T14:15:25;3.33;;;1.30;;
4434;SDS011;46552;52.150;8.428;2023-08-31T14:17:52;2.67;;;1.40;;
4434;SDS011;46552;52.150;8.428;2023-08-31T14:20:21;3.37;;;1.67;;
4434;SDS011;46552;52.150;8.428;2023-08-31T14:22:48;4.57;;;1.63;;
4434;SDS011;46552;52.150;8.428;2023-08-31T14:25:15;3.03;;;1.60;;
4434;SDS011;46552;52.150;8.428;2023-08-31T14:27:42;3.17;;;1.40;;
4434;SDS011;46552;52.150;8.428;2023-08-31T14:30:10;4.10;;;1.37;;
4434;SDS011;46552;52.150;8.428;2023-08-31T14:32:37;5.00;;;2.00;;
4434;SDS011;46552;52.150;8.428;2023-08-31T14:35:04;3.83;;;1.60;;
4434;SDS011;46552;52.150;8.428;2023-08-31T14:37:33;6.60;;;1.67;;
4434;SDS011;46552;52.150;8.428;2023-08-31T14:40:02;5.30;;;1.40;;
4434;SDS011;46552;52.150;8.428;2023-08-31T14:42:31;3.70;;;1.57;;
4434;SDS011;46552;52.150;8.428;2023-08-31T14:44:59;5.00;;;2.13;;
4434;SDS011;46552;52.150;8.428;2023-08-31T14:47:28;3.20;;;1.80;;
4434;SDS011;46552;52.150;8.428;2023-08-31T14:49:55;5.93;;;2.20;;
4434;SDS011;46552;52.150;8.428;2023-08-31T14:52:22;5.17;;;1.87;;
4434;SDS011;46552;52.150;8.428;2023-08-31T14:54:50;5.30;;;2.50;;
4434;SDS011;46552;52.150;8.428;2023-08-31T14:57:18;4.83;;;2.10;;